Aviation Digital Data Service (ADDS)

Output produced by TAFs form (1918 UTC 21 April 2018)
found at http://aviationweather.gov/adds/tafs/
 
METAR text: RODN 211906Z 11009KT 4SM BR BKN004 BKN009 OVC014 23/22 A2999 RMK AO2A SLP161 $
Conditions at: RODN (KADENA (USAFB-NA, JP) observed 1906 UTC 21 April 2018
Temperature: 23.0°C (73°F)
Dewpoint: 22.0°C (72°F) [RH = 94%]
Pressure (altimeter): 29.99 inches Hg (1015.7 mb)
[Sea-level pressure: 1016.1 mb]
Winds: from the ESE (110 degrees) at 10 MPH (9 knots; 4.7 m/s)
Visibility: 4 miles (6 km)
Ceiling: 400 feet AGL
Clouds: broken clouds at 400 feet AGL
broken clouds at 900 feet AGL
overcast cloud deck at 1400 feet AGL
Weather: BR  (mist)
SOME DATA ABOVE MAY BE INACCURATE!!!
"$" is an indication the sensor requires maintenance

Forecast for: RODN (KADENA (USAFB-NA, JP)
Text: TAF AMD RODN 211800Z 2118/2222 12010KT 9000 BR BKN004 QNH2996INS
Forecast period: 1800 to 2100 UTC 21 April 2018
Forecast type: FROM: standard forecast or significant change
Winds: from the ESE (120 degrees) at 12 MPH (10 knots; 5.2 m/s)
Visibility: 6 miles (9 km)
Ceiling: 400 feet AGL
Clouds: broken clouds at 400 feet AGL
Weather: BR  (mist)
Forecast for: RODN (KADENA (USAFB-NA, JP)
Text: TAF AMD RODN 211800Z 2118/2222 12010KT 9000 BR BKN004 QNH2996INS
Forecast period: 1800 to 2100 UTC 21 April 2018
Forecast type: FROM: standard forecast or significant change
Winds: from the ESE (120 degrees) at 12 MPH (10 knots; 5.2 m/s)
Visibility: 6 miles (9 km)
Ceiling: 400 feet AGL
Clouds: broken clouds at 400 feet AGL
Weather: BR  (mist)
Forecast for: RODN (KADENA (USAFB-NA, JP)
Text: TAF AMD RODN 211800Z 2118/2222 12010KT 9000 BR BKN004 QNH2996INS
Forecast period: 2100 UTC 21 April 2018 to 2200 UTC 22 April 2018
Forecast type: BECOMING: Conditions expected to become as follows by 2200 UTC 21 April 2018
Winds: from the ESE (120 degrees) at 14 MPH (12 knots; 6.2 m/s)
gusting to 21 MPH (18 knots; 9.4 m/s)
Visibility: 6 or more miles (10+ km)
Ceiling: 1000 feet AGL
Clouds: overcast cloud deck at 1000 feet AGL
Weather: NSW  (no significant weather)
Forecast for: RODN (KADENA (USAFB-NA, JP)
Text: TAF AMD RODN 211800Z 2118/2222 12010KT 9000 BR BKN004 QNH2996INS
Forecast period: 2100 UTC 21 April 2018 to 2200 UTC 22 April 2018
Forecast type: BECOMING: Conditions expected to become as follows by 2200 UTC 21 April 2018
Winds: from the ESE (120 degrees) at 14 MPH (12 knots; 6.2 m/s)
gusting to 21 MPH (18 knots; 9.4 m/s)
Visibility: 6 or more miles (10+ km)
Ceiling: 1000 feet AGL
Clouds: overcast cloud deck at 1000 feet AGL
Weather: NSW  (no significant weather)
Forecast for: RODN (KADENA (USAFB-NA, JP)
Text: TAF AMD RODN 211800Z 2118/2222 12010KT 9000 BR BKN004 QNH2996INS
Forecast period: 2200 UTC 21 April 2018 to 0500 UTC 22 April 2018
Forecast type: TEMPORARY: The following changes expected for less than half the time period
Ceiling: 1000 feet AGL
Clouds: overcast cloud deck at 1000 feet AGL
Weather: VCTS  (thunderstorm in vicinity)
Forecast for: RODN (KADENA (USAFB-NA, JP)
Text: TAF AMD RODN 211800Z 2118/2222 12010KT 9000 BR BKN004 QNH2996INS
Forecast period: 2200 UTC 21 April 2018 to 0500 UTC 22 April 2018
Forecast type: TEMPORARY: The following changes expected for less than half the time period
Ceiling: 1000 feet AGL
Clouds: overcast cloud deck at 1000 feet AGL
Weather: VCTS  (thunderstorm in vicinity)
Forecast for: RODN (KADENA (USAFB-NA, JP)
Text: TAF AMD RODN 211800Z 2118/2222 12010KT 9000 BR BKN004 QNH2996INS
Forecast period: 0500 to 1000 UTC 22 April 2018
Forecast type: TEMPORARY: The following changes expected for less than half the time period
Visibility: 5 miles (8 km)
Ceiling: 700 feet AGL
Clouds: overcast cloud deck at 700 feet AGL
Weather: -SHRA  (light rain showers)
Forecast for: RODN (KADENA (USAFB-NA, JP)
Text: TAF AMD RODN 211800Z 2118/2222 12010KT 9000 BR BKN004 QNH2996INS
Forecast period: 0500 to 1000 UTC 22 April 2018
Forecast type: TEMPORARY: The following changes expected for less than half the time period
Visibility: 5 miles (8 km)
Ceiling: 700 feet AGL
Clouds: overcast cloud deck at 700 feet AGL
Weather: -SHRA  (light rain showers)